Time;durP1;ratioP1;P1;durP2;ratioP2;P2;SDS_P1;SDS_P2;PMS_P1;PMS_P2;Temp;Humidity;BMP_temperature;BMP_pressure;BME280_temperature;BME280_humidity;BME280_pressure;Samples;Min_cycle;Max_cycle;Signal;HPM_P1;HPM_P2
2023/03/30 00:00:52;;;;;;;9.93;3.70;;;;;;;;;;5047319;28;20823;-78
2023/03/30 00:03:18;;;;;;;9.13;3.30;;;;;;;;;;5011518;28;20185;-81
2023/03/30 00:05:45;;;;;;;8.43;2.93;;;;;;;;;;5044935;28;20272;-79
2023/03/30 00:08:13;;;;;;;11.37;2.90;;;;;;;;;;5028777;28;20235;-81
2023/03/30 00:10:43;;;;;;;13.17;5.60;;;;;;;;;;5047733;28;20848;-79
2023/03/30 00:13:10;;;;;;;15.30;5.63;;;;;;;;;;5045430;28;20747;-81
2023/03/30 00:15:36;;;;;;;10.23;5.00;;;;;;;;;;5012140;28;20224;-79
2023/03/30 00:18:02;;;;;;;12.37;5.53;;;;;;;;;;5044978;28;20249;-78
2023/03/30 00:20:31;;;;;;;12.43;5.57;;;;;;;;;;5044536;28;20200;-79
2023/03/30 00:22:57;;;;;;;11.43;4.30;;;;;;;;;;5045158;28;20170;-80
2023/03/30 00:25:24;;;;;;;10.67;4.47;;;;;;;;;;5045460;28;20190;-78
2023/03/30 00:27:50;;;;;;;9.63;3.97;;;;;;;;;;5047035;28;20308;-77
2023/03/30 00:30:18;;;;;;;11.07;3.60;;;;;;;;;;5045402;28;20205;-80
2023/03/30 00:32:45;;;;;;;8.80;3.63;;;;;;;;;;5025850;28;20613;-79
2023/03/30 00:35:12;;;;;;;13.10;4.07;;;;;;;;;;5042862;28;20209;-80
2023/03/30 00:37:38;;;;;;;11.63;4.27;;;;;;;;;;5044761;28;20257;-80
2023/03/30 00:40:06;;;;;;;12.73;4.23;;;;;;;;;;5028510;28;20201;-79
2023/03/30 00:42:34;;;;;;;13.33;5.37;;;;;;;;;;5045083;28;20270;-80
2023/03/30 00:45:20;;;;;;;10.37;4.87;;;;;;;;;;5011468;28;20186;-78
2023/03/30 00:47:49;;;;;;;10.70;5.00;;;;;;;;;;5040609;28;20752;-78
2023/03/30 00:50:16;;;;;;;14.63;5.97;;;;;;;;;;5024154;28;20232;-78
2023/03/30 00:52:45;;;;;;;10.20;4.20;;;;;;;;;;5041235;28;20201;-79
2023/03/30 00:55:12;;;;;;;14.83;6.50;;;;;;;;;;5041233;28;20231;-82
2023/03/30 00:57:40;;;;;;;14.80;4.47;;;;;;;;;;5046139;28;20183;-81
2023/03/30 01:00:07;;;;;;;7.60;2.97;;;;;;;;;;5047043;28;20206;-78
2023/03/30 01:02:38;;;;;;;7.03;3.30;;;;;;;;;;5032940;28;20247;-80
2023/03/30 01:05:05;;;;;;;13.83;5.53;;;;;;;;;;5041263;28;20182;-80
2023/03/30 01:07:32;;;;;;;11.00;4.87;;;;;;;;;;5046241;28;20274;-78
2023/03/30 01:09:59;;;;;;;14.23;5.83;;;;;;;;;;5043620;28;20209;-80
2023/03/30 01:12:25;;;;;;;12.17;4.63;;;;;;;;;;5023336;28;20190;-80
2023/03/30 01:14:52;;;;;;;7.43;3.07;;;;;;;;;;5044170;28;20271;-80
2023/03/30 01:17:25;;;;;;;10.47;3.00;;;;;;;;;;5041650;28;20559;-80
2023/03/30 01:20:11;;;;;;;9.47;3.50;;;;;;;;;;5036850;28;20247;-79
2023/03/30 01:23:02;;;;;;;12.77;4.47;;;;;;;;;;5044234;28;20193;-79
2023/03/30 01:25:28;;;;;;;10.13;3.97;;;;;;;;;;5043164;28;21056;-80
2023/03/30 01:28:30;;;;;;;7.93;3.10;;;;;;;;;;5050508;28;20187;-80
2023/03/30 01:30:59;;;;;;;10.43;3.13;;;;;;;;;;4965655;28;20221;-80
2023/03/30 01:33:45;;;;;;;7.00;2.53;;;;;;;;;;5034263;28;20623;-80
2023/03/30 01:36:35;;;;;;;6.50;2.67;;;;;;;;;;5012787;28;20194;-80
2023/03/30 01:39:20;;;;;;;7.20;2.37;;;;;;;;;;5049908;28;20706;-83
2023/03/30 01:42:05;;;;;;;9.13;3.00;;;;;;;;;;5045975;28;20223;-80
2023/03/30 01:44:40;;;;;;;6.17;2.47;;;;;;;;;;5047939;28;20189;-80
2023/03/30 01:47:10;;;;;;;6.43;2.60;;;;;;;;;;5045893;28;20182;-79
2023/03/30 01:49:39;;;;;;;7.80;2.80;;;;;;;;;;5051039;28;20696;-79
2023/03/30 01:52:05;;;;;;;8.80;2.70;;;;;;;;;;5045787;28;20205;-80
2023/03/30 01:54:33;;;;;;;5.40;2.50;;;;;;;;;;5030271;28;20224;-78
2023/03/30 01:57:04;;;;;;;8.30;2.70;;;;;;;;;;5014946;28;20182;-80
2023/03/30 01:59:33;;;;;;;12.13;2.97;;;;;;;;;;5033053;28;20189;-80
2023/03/30 02:02:02;;;;;;;6.93;2.70;;;;;;;;;;5029075;28;20293;-79
2023/03/30 02:04:31;;;;;;;9.37;3.30;;;;;;;;;;5031818;28;20212;-81
2023/03/30 02:07:00;;;;;;;7.67;3.30;;;;;;;;;;5046725;28;20192;-81
2023/03/30 02:09:27;;;;;;;11.33;3.20;;;;;;;;;;5049875;28;20208;-80
2023/03/30 02:11:54;;;;;;;8.80;2.70;;;;;;;;;;5031910;28;20232;-79
2023/03/30 02:14:23;;;;;;;7.03;2.83;;;;;;;;;;5048805;28;20709;-81
2023/03/30 02:16:56;;;;;;;11.53;3.17;;;;;;;;;;5031963;28;20178;-80
2023/03/30 02:19:22;;;;;;;7.77;2.73;;;;;;;;;;5043484;28;20226;-80
2023/03/30 02:21:49;;;;;;;6.47;3.03;;;;;;;;;;5046408;28;20198;-80
2023/03/30 02:24:18;;;;;;;7.10;3.00;;;;;;;;;;5028079;28;20206;-79
2023/03/30 02:26:49;;;;;;;7.23;2.67;;;;;;;;;;5043335;28;20185;-80
2023/03/30 02:29:16;;;;;;;10.03;2.83;;;;;;;;;;5042734;28;20289;-80
2023/03/30 02:31:43;;;;;;;11.20;3.53;;;;;;;;;;5043499;28;20212;-78
2023/03/30 02:34:17;;;;;;;12.07;4.50;;;;;;;;;;5013742;28;20217;-80
2023/03/30 02:36:46;;;;;;;10.63;3.90;;;;;;;;;;5024667;28;20186;-80
2023/03/30 02:39:33;;;;;;;11.23;4.00;;;;;;;;;;5040304;28;20179;-80
2023/03/30 02:42:18;;;;;;;13.80;4.93;;;;;;;;;;5033176;28;20220;-80
2023/03/30 02:44:51;;;;;;;11.80;3.77;;;;;;;;;;5043450;28;20182;-81
2023/03/30 02:47:40;;;;;;;19.57;6.10;;;;;;;;;;5052023;28;20178;-79
2023/03/30 02:50:15;;;;;;;7.87;3.40;;;;;;;;;;5052521;28;20271;-81
2023/03/30 02:52:48;;;;;;;14.77;5.37;;;;;;;;;;5051740;28;20227;-80
2023/03/30 02:55:19;;;;;;;10.10;3.63;;;;;;;;;;5063713;28;20697;-80
2023/03/30 02:58:08;;;;;;;8.50;3.37;;;;;;;;;;5021054;28;20201;-80
2023/03/30 03:00:50;;;;;;;11.57;3.93;;;;;;;;;;5048139;28;20205;-79
2023/03/30 03:03:27;;;;;;;14.37;5.10;;;;;;;;;;5047634;28;20210;-80
2023/03/30 03:05:55;;;;;;;12.67;3.80;;;;;;;;;;5045871;28;20704;-80
2023/03/30 03:08:35;;;;;;;11.13;3.43;;;;;;;;;;5042106;28;20219;-80
2023/03/30 03:11:02;;;;;;;14.47;4.40;;;;;;;;;;5050505;28;20249;-80
2023/03/30 03:13:30;;;;;;;10.37;4.10;;;;;;;;;;5026680;28;20194;-80
2023/03/30 03:15:57;;;;;;;13.33;3.67;;;;;;;;;;5047025;28;20205;-80
2023/03/30 03:18:24;;;;;;;12.70;3.30;;;;;;;;;;5049445;28;20185;-79
2023/03/30 03:20:51;;;;;;;12.30;4.30;;;;;;;;;;5045651;28;20204;-79
2023/03/30 03:23:22;;;;;;;8.47;3.30;;;;;;;;;;5042923;28;20197;-80
2023/03/30 03:25:50;;;;;;;7.43;3.20;;;;;;;;;;5045337;28;20259;-79
2023/03/30 03:28:19;;;;;;;15.03;3.27;;;;;;;;;;5047107;28;20216;-80
2023/03/30 03:30:49;;;;;;;12.43;3.10;;;;;;;;;;5045026;28;20795;-81
2023/03/30 03:33:22;;;;;;;6.97;2.97;;;;;;;;;;5029141;28;20194;-77
2023/03/30 03:35:58;;;;;;;12.20;3.13;;;;;;;;;;5036159;28;20224;-80
2023/03/30 03:38:25;;;;;;;9.53;2.90;;;;;;;;;;5031151;28;20327;-81
2023/03/30 03:40:52;;;;;;;7.13;2.67;;;;;;;;;;5045751;28;20225;-81
2023/03/30 03:43:18;;;;;;;7.60;2.40;;;;;;;;;;5045144;28;20553;-78
2023/03/30 03:45:45;;;;;;;8.67;2.90;;;;;;;;;;5047155;28;20599;-79
2023/03/30 03:48:12;;;;;;;10.33;3.07;;;;;;;;;;5057800;28;20732;-80
2023/03/30 03:50:43;;;;;;;7.00;2.63;;;;;;;;;;5057154;28;21666;-80
2023/03/30 03:53:09;;;;;;;9.97;3.40;;;;;;;;;;5025259;28;20249;-80
2023/03/30 03:55:36;;;;;;;10.40;3.00;;;;;;;;;;5044478;28;20202;-79
2023/03/30 03:58:02;;;;;;;7.40;3.10;;;;;;;;;;5038943;28;20182;-79
2023/03/30 04:00:29;;;;;;;9.63;3.03;;;;;;;;;;5025268;28;20328;-79
2023/03/30 04:02:56;;;;;;;8.13;3.23;;;;;;;;;;5043029;28;20537;-79
2023/03/30 04:05:22;;;;;;;8.30;3.67;;;;;;;;;;5011697;28;20239;-79
2023/03/30 04:07:48;;;;;;;10.67;3.40;;;;;;;;;;5042783;28;20212;-80
2023/03/30 04:10:15;;;;;;;9.73;3.10;;;;;;;;;;5043432;28;20478;-80
2023/03/30 04:13:01;;;;;;;10.90;3.70;;;;;;;;;;5029040;28;20501;-80
2023/03/30 04:15:47;;;;;;;10.47;3.50;;;;;;;;;;5053655;28;20615;-80
2023/03/30 04:18:37;;;;;;;11.27;3.30;;;;;;;;;;5042464;28;20669;-80
2023/03/30 04:21:28;;;;;;;11.87;3.20;;;;;;;;;;5025986;28;20589;-79
2023/03/30 04:24:10;;;;;;;16.27;8.60;;;;;;;;;;5038735;28;20186;-80
2023/03/30 04:26:49;;;;;;;13.40;5.67;;;;;;;;;;5044708;28;20196;-79
2023/03/30 04:29:39;;;;;;;8.93;4.10;;;;;;;;;;5038223;28;20194;-80
2023/03/30 04:32:40;;;;;;;8.60;3.30;;;;;;;;;;5042761;28;20185;-80
2023/03/30 04:35:38;;;;;;;11.87;3.20;;;;;;;;;;5043936;28;20522;-81
2023/03/30 04:38:28;;;;;;;10.37;3.17;;;;;;;;;;5026210;28;20195;-80
2023/03/30 04:41:13;;;;;;;10.48;3.40;;;;;;;;;;5056880;28;20734;-80
2023/03/30 04:44:03;;;;;;;11.63;3.47;;;;;;;;;;5043631;28;20177;-80
2023/03/30 04:46:48;;;;;;;10.73;3.17;;;;;;;;;;5045912;28;20181;-81
2023/03/30 04:49:33;;;;;;;11.43;3.27;;;;;;;;;;5042286;28;20184;-79
2023/03/30 04:52:20;;;;;;;9.60;3.53;;;;;;;;;;5039552;28;20198;-81
2023/03/30 04:55:13;;;;;;;9.17;3.63;;;;;;;;;;5022156;28;20222;-81
2023/03/30 04:57:57;;;;;;;8.33;2.93;;;;;;;;;;5038844;28;20184;-79
2023/03/30 05:00:41;;;;;;;13.33;3.37;;;;;;;;;;5038471;28;20288;-81
2023/03/30 05:03:28;;;;;;;8.30;3.50;;;;;;;;;;5017991;28;20205;-79
2023/03/30 05:06:26;;;;;;;8.50;3.40;;;;;;;;;;5042222;28;20842;-80
2023/03/30 05:09:10;;;;;;;10.18;3.80;;;;;;;;;;5043326;28;20427;-80
2023/03/30 05:11:55;;;;;;;10.33;3.90;;;;;;;;;;5040087;28;20509;-80
2023/03/30 05:14:33;;;;;;;10.27;3.60;;;;;;;;;;5009641;28;20767;-80
2023/03/30 05:17:26;;;;;;;9.00;3.40;;;;;;;;;;5030188;28;20602;-79
2023/03/30 05:20:11;;;;;;;9.50;3.50;;;;;;;;;;5026004;28;20221;-81
2023/03/30 05:23:03;;;;;;;10.50;3.30;;;;;;;;;;5021597;28;20268;-80
2023/03/30 05:25:49;;;;;;;11.70;3.30;;;;;;;;;;5040161;28;20733;-80
2023/03/30 05:28:33;;;;;;;12.33;4.13;;;;;;;;;;5039772;28;20273;-80
2023/03/30 05:31:21;;;;;;;10.77;4.17;;;;;;;;;;5013775;28;20229;-80
2023/03/30 05:34:12;;;;;;;9.83;3.87;;;;;;;;;;5027660;28;20301;-78
2023/03/30 05:36:51;;;;;;;12.10;3.90;;;;;;;;;;5029541;28;20458;-80
2023/03/30 05:39:40;;;;;;;9.77;3.33;;;;;;;;;;5026769;28;20268;-80
2023/03/30 05:42:26;;;;;;;11.30;3.90;;;;;;;;;;5037325;28;20194;-80
2023/03/30 05:45:01;;;;;;;10.07;4.20;;;;;;;;;;5038674;28;20265;-79
2023/03/30 05:47:58;;;;;;;14.20;4.73;;;;;;;;;;5024041;28;20209;-80
2023/03/30 05:50:33;;;;;;;14.67;3.97;;;;;;;;;;5041322;28;20205;-80
2023/03/30 05:53:03;;;;;;;13.57;4.40;;;;;;;;;;5041153;28;20201;-78
2023/03/30 05:55:32;;;;;;;10.83;4.10;;;;;;;;;;5039623;28;20351;-78
2023/03/30 05:58:32;;;;;;;11.43;4.60;;;;;;;;;;5040718;28;20189;-79
2023/03/30 06:01:14;;;;;;;23.70;5.50;;;;;;;;;;5037647;28;20258;-78
2023/03/30 06:03:42;;;;;;;12.13;4.97;;;;;;;;;;5034218;28;20186;-78
2023/03/30 06:06:11;;;;;;;13.10;4.37;;;;;;;;;;5041669;28;20323;-78
2023/03/30 06:08:37;;;;;;;13.27;4.30;;;;;;;;;;5041854;28;20183;-78
2023/03/30 06:11:05;;;;;;;15.60;4.57;;;;;;;;;;5057302;28;20288;-78
2023/03/30 06:13:43;;;;;;;9.23;4.00;;;;;;;;;;5041074;28;20239;-78
2023/03/30 06:16:09;;;;;;;10.17;4.43;;;;;;;;;;5044580;28;20229;-78
2023/03/30 06:18:37;;;;;;;13.83;4.20;;;;;;;;;;5042052;28;20214;-78
2023/03/30 06:21:07;;;;;;;14.00;5.03;;;;;;;;;;5043004;28;20249;-78
2023/03/30 06:23:41;;;;;;;16.07;5.37;;;;;;;;;;5042683;28;20206;-78
2023/03/30 06:26:13;;;;;;;10.93;4.50;;;;;;;;;;5045453;28;20181;-78
2023/03/30 06:28:40;;;;;;;13.57;5.10;;;;;;;;;;5060313;28;20191;-78
2023/03/30 06:31:10;;;;;;;17.90;5.10;;;;;;;;;;5041372;28;20337;-78
2023/03/30 06:33:37;;;;;;;12.00;5.20;;;;;;;;;;5047284;28;20193;-78
2023/03/30 06:36:10;;;;;;;11.27;5.80;;;;;;;;;;5047584;28;20201;-77
2023/03/30 06:38:37;;;;;;;15.80;7.00;;;;;;;;;;5040950;28;20186;-78
2023/03/30 06:41:07;;;;;;;15.50;7.63;;;;;;;;;;5042776;28;20197;-78
2023/03/30 06:43:36;;;;;;;15.93;8.33;;;;;;;;;;5027492;28;20937;-78
2023/03/30 06:46:19;;;;;;;20.83;8.50;;;;;;;;;;5046683;28;20193;-78
2023/03/30 06:48:47;;;;;;;19.20;7.60;;;;;;;;;;5047207;28;20174;-78
2023/03/30 06:51:34;;;;;;;15.60;6.03;;;;;;;;;;5049728;28;20344;-78
2023/03/30 06:54:01;;;;;;;15.17;5.67;;;;;;;;;;5043858;28;20240;-78
2023/03/30 06:56:27;;;;;;;12.10;5.03;;;;;;;;;;5043934;28;20186;-78
2023/03/30 06:59:06;;;;;;;17.53;6.00;;;;;;;;;;5042300;28;20186;-81
2023/03/30 07:01:42;;;;;;;14.63;5.20;;;;;;;;;;5052540;28;20209;-81
2023/03/30 07:04:22;;;;;;;12.33;4.77;;;;;;;;;;5053673;28;20193;-78
2023/03/30 07:07:14;;;;;;;11.07;4.60;;;;;;;;;;5045935;28;20197;-78
2023/03/30 07:09:40;;;;;;;16.40;4.90;;;;;;;;;;5045745;28;20190;-78
2023/03/30 07:12:07;;;;;;;11.47;5.30;;;;;;;;;;5042828;28;20182;-78
2023/03/30 07:14:34;;;;;;;15.93;5.27;;;;;;;;;;5046364;28;20351;-78
2023/03/30 07:17:01;;;;;;;14.03;6.37;;;;;;;;;;5046433;28;20185;-78
2023/03/30 07:19:27;;;;;;;16.67;5.63;;;;;;;;;;5045708;28;20187;-78
2023/03/30 07:21:53;;;;;;;12.63;5.13;;;;;;;;;;5048823;28;20223;-78
2023/03/30 07:24:23;;;;;;;11.30;5.70;;;;;;;;;;5044833;28;20190;-81
2023/03/30 07:26:50;;;;;;;12.57;5.50;;;;;;;;;;5029000;28;20273;-79
2023/03/30 07:29:16;;;;;;;13.63;4.97;;;;;;;;;;5023318;28;20886;-78
2023/03/30 07:31:46;;;;;;;11.70;5.20;;;;;;;;;;5042892;28;20221;-78
2023/03/30 07:34:13;;;;;;;12.00;4.40;;;;;;;;;;5047488;28;20190;-79
2023/03/30 07:36:46;;;;;;;17.33;5.67;;;;;;;;;;5028196;28;20289;-79
2023/03/30 07:39:13;;;;;;;15.57;6.53;;;;;;;;;;5046215;28;20269;-78
2023/03/30 07:41:42;;;;;;;11.97;5.30;;;;;;;;;;5023432;28;20237;-78
2023/03/30 07:44:08;;;;;;;11.40;5.30;;;;;;;;;;5039535;28;20181;-77
2023/03/30 07:46:35;;;;;;;9.53;4.30;;;;;;;;;;5038594;28;20211;-83
2023/03/30 07:49:01;;;;;;;8.40;4.10;;;;;;;;;;5047415;28;20615;-81
2023/03/30 07:51:28;;;;;;;8.10;4.30;;;;;;;;;;5045763;28;20248;-80
2023/03/30 07:54:23;;;;;;;6.43;4.07;;;;;;;;;;5036223;28;20628;-79
2023/03/30 07:56:59;;;;;;;10.60;5.50;;;;;;;;;;5032325;28;20233;-81
2023/03/30 07:59:26;;;;;;;12.13;4.87;;;;;;;;;;5044984;28;20182;-80
2023/03/30 08:01:56;;;;;;;8.67;4.47;;;;;;;;;;5044129;28;20638;-78
2023/03/30 08:04:45;;;;;;;8.63;3.80;;;;;;;;;;5042362;28;20186;-77
2023/03/30 08:07:13;;;;;;;7.83;4.20;;;;;;;;;;5044149;28;20335;-78
2023/03/30 08:09:39;;;;;;;7.13;4.20;;;;;;;;;;5048258;28;20206;-76
2023/03/30 08:12:06;;;;;;;5.83;3.57;;;;;;;;;;5042617;28;20281;-75
2023/03/30 08:14:32;;;;;;;8.60;3.70;;;;;;;;;;5045095;28;20217;-75
2023/03/30 08:16:58;;;;;;;7.70;4.00;;;;;;;;;;5044835;28;20181;-77
2023/03/30 08:19:27;;;;;;;9.20;4.17;;;;;;;;;;5046280;28;20193;-79
2023/03/30 08:21:55;;;;;;;8.20;3.97;;;;;;;;;;5044558;28;20228;-77
2023/03/30 08:24:21;;;;;;;8.63;3.73;;;;;;;;;;5045470;28;20313;-77
2023/03/30 08:26:47;;;;;;;8.90;3.80;;;;;;;;;;5052942;28;20186;-79
2023/03/30 08:29:13;;;;;;;8.27;3.80;;;;;;;;;;5044256;28;20195;-77
2023/03/30 08:31:39;;;;;;;6.83;3.80;;;;;;;;;;5040756;28;20201;-77
2023/03/30 08:34:06;;;;;;;9.40;3.83;;;;;;;;;;5045323;28;20254;-77
2023/03/30 08:36:33;;;;;;;7.30;3.63;;;;;;;;;;5039073;28;20196;-78
2023/03/30 08:38:59;;;;;;;7.70;3.83;;;;;;;;;;5045232;28;20180;-77
2023/03/30 08:41:28;;;;;;;9.77;4.43;;;;;;;;;;5044058;28;20201;-77
2023/03/30 08:44:01;;;;;;;9.87;4.80;;;;;;;;;;5048439;28;20189;-77
2023/03/30 08:46:28;;;;;;;9.50;4.37;;;;;;;;;;5043095;28;20896;-77
2023/03/30 08:48:56;;;;;;;7.80;3.80;;;;;;;;;;5044477;28;20190;-77
2023/03/30 08:51:34;;;;;;;9.60;4.10;;;;;;;;;;5046784;28;20205;-78
2023/03/30 08:54:07;;;;;;;10.13;3.97;;;;;;;;;;5039696;28;20714;-78
2023/03/30 08:56:47;;;;;;;9.60;4.40;;;;;;;;;;5041213;28;20196;-78
2023/03/30 08:59:14;;;;;;;8.90;4.60;;;;;;;;;;5042980;28;20539;-78
2023/03/30 09:01:59;;;;;;;11.43;4.30;;;;;;;;;;5039511;28;20214;-78
2023/03/30 09:04:44;;;;;;;10.67;4.53;;;;;;;;;;5044913;28;20181;-78
2023/03/30 09:07:16;;;;;;;10.70;4.50;;;;;;;;;;5043766;28;20200;-78
2023/03/30 09:09:44;;;;;;;10.40;4.63;;;;;;;;;;5045330;28;20190;-78
2023/03/30 09:12:13;;;;;;;10.43;4.63;;;;;;;;;;5044404;28;20272;-78
2023/03/30 09:14:45;;;;;;;11.73;4.57;;;;;;;;;;5045183;28;20198;-78
2023/03/30 09:17:17;;;;;;;13.30;4.80;;;;;;;;;;5040032;28;20206;-78
2023/03/30 09:19:50;;;;;;;10.13;4.13;;;;;;;;;;5040319;28;20345;-78
2023/03/30 09:22:18;;;;;;;8.97;4.40;;;;;;;;;;5034786;28;20258;-77
2023/03/30 09:24:44;;;;;;;11.10;5.00;;;;;;;;;;5036642;28;20229;-78
2023/03/30 09:27:21;;;;;;;10.10;4.10;;;;;;;;;;5043427;28;20311;-78
2023/03/30 09:29:49;;;;;;;11.30;4.03;;;;;;;;;;5043253;28;20327;-78
2023/03/30 09:32:26;;;;;;;8.83;4.53;;;;;;;;;;5041830;28;20186;-78
2023/03/30 09:34:53;;;;;;;10.03;4.70;;;;;;;;;;5045361;28;20210;-77
2023/03/30 09:37:20;;;;;;;9.70;3.87;;;;;;;;;;5024394;28;20196;-78
2023/03/30 09:39:47;;;;;;;11.37;4.43;;;;;;;;;;5044410;28;20255;-78
2023/03/30 09:42:27;;;;;;;12.53;4.17;;;;;;;;;;5040302;28;20175;-78
2023/03/30 09:44:59;;;;;;;10.57;4.07;;;;;;;;;;5044243;28;20265;-77
2023/03/30 09:47:26;;;;;;;8.43;3.97;;;;;;;;;;5042794;28;20241;-80
2023/03/30 09:49:57;;;;;;;8.40;4.23;;;;;;;;;;5052520;28;20192;-78
2023/03/30 09:52:24;;;;;;;7.03;3.83;;;;;;;;;;5052704;28;20212;-77
2023/03/30 09:54:50;;;;;;;8.60;4.13;;;;;;;;;;5047466;28;20284;-78
2023/03/30 09:57:30;;;;;;;7.53;3.87;;;;;;;;;;5045517;28;20186;-78
2023/03/30 09:59:58;;;;;;;10.50;3.70;;;;;;;;;;5046915;28;20179;-78
2023/03/30 10:02:26;;;;;;;8.87;3.67;;;;;;;;;;5046737;28;20888;-78
2023/03/30 10:04:52;;;;;;;7.67;3.90;;;;;;;;;;5046533;28;20250;-78
2023/03/30 10:07:39;;;;;;;9.43;3.53;;;;;;;;;;5040941;28;20214;-82
2023/03/30 10:10:14;;;;;;;7.07;3.40;;;;;;;;;;5045190;28;20844;-77
2023/03/30 10:12:40;;;;;;;9.00;3.67;;;;;;;;;;5042961;28;20228;-78
2023/03/30 10:15:14;;;;;;;9.37;4.00;;;;;;;;;;5042551;28;20222;-78
2023/03/30 10:17:40;;;;;;;6.30;3.80;;;;;;;;;;5030237;28;20201;-78
2023/03/30 10:20:16;;;;;;;9.20;4.17;;;;;;;;;;5047027;28;20196;-77
2023/03/30 10:22:56;;;;;;;14.20;5.00;;;;;;;;;;5045600;28;20170;-78
2023/03/30 10:25:23;;;;;;;9.47;3.80;;;;;;;;;;5044016;28;20193;-81
2023/03/30 10:27:54;;;;;;;8.13;4.40;;;;;;;;;;5052176;28;20185;-78
2023/03/30 10:30:23;;;;;;;7.03;3.70;;;;;;;;;;5050485;28;20297;-78
2023/03/30 10:32:50;;;;;;;8.67;3.70;;;;;;;;;;5048199;28;20185;-78
2023/03/30 10:35:24;;;;;;;8.87;3.53;;;;;;;;;;5044256;28;20207;-78
2023/03/30 10:37:52;;;;;;;5.70;3.30;;;;;;;;;;5048026;28;20646;-78
2023/03/30 10:40:20;;;;;;;6.93;3.30;;;;;;;;;;5042034;28;20897;-77
2023/03/30 10:42:47;;;;;;;4.60;3.40;;;;;;;;;;5048051;28;20182;-80
2023/03/30 10:45:16;;;;;;;8.67;3.47;;;;;;;;;;5029591;28;20193;-82
2023/03/30 10:47:56;;;;;;;6.00;3.20;;;;;;;;;;5029177;28;20179;-79
2023/03/30 10:50:22;;;;;;;6.70;3.10;;;;;;;;;;5042476;28;20209;-77
2023/03/30 10:52:56;;;;;;;4.87;2.97;;;;;;;;;;5038562;28;20202;-78
2023/03/30 10:55:34;;;;;;;5.97;2.90;;;;;;;;;;5040633;28;20218;-78
2023/03/30 10:58:17;;;;;;;4.83;2.80;;;;;;;;;;5044107;28;20194;-76
2023/03/30 11:01:08;;;;;;;6.30;3.03;;;;;;;;;;5039606;28;20271;-75
2023/03/30 11:03:35;;;;;;;10.93;3.00;;;;;;;;;;5037261;28;20302;-75
2023/03/30 11:06:04;;;;;;;5.00;2.77;;;;;;;;;;5042945;28;20265;-75
2023/03/30 11:08:38;;;;;;;6.93;3.27;;;;;;;;;;5045672;28;20190;-75
2023/03/30 11:11:05;;;;;;;4.93;2.63;;;;;;;;;;5043865;28;20247;-75
2023/03/30 11:13:31;;;;;;;6.33;2.90;;;;;;;;;;5023809;28;20190;-75
2023/03/30 11:16:19;;;;;;;7.13;2.77;;;;;;;;;;5042357;28;20202;-76
2023/03/30 11:19:02;;;;;;;4.03;2.60;;;;;;;;;;5043225;28;20186;-76
2023/03/30 11:21:49;;;;;;;5.43;2.57;;;;;;;;;;5042445;28;20210;-76
2023/03/30 11:24:15;;;;;;;4.50;2.60;;;;;;;;;;5042091;28;21086;-76
2023/03/30 11:26:50;;;;;;;5.17;2.63;;;;;;;;;;5041205;28;20280;-76
2023/03/30 11:29:29;;;;;;;3.87;2.57;;;;;;;;;;5042967;28;20192;-76
2023/03/30 11:32:01;;;;;;;8.73;2.87;;;;;;;;;;5036878;28;20201;-76
2023/03/30 11:34:47;;;;;;;6.27;2.67;;;;;;;;;;5042268;28;20209;-76
2023/03/30 11:37:26;;;;;;;5.07;2.87;;;;;;;;;;5041184;28;20661;-76
2023/03/30 11:39:56;;;;;;;8.27;2.50;;;;;;;;;;5037259;28;20209;-76
2023/03/30 11:42:30;;;;;;;5.00;2.40;;;;;;;;;;5039168;28;20178;-78
2023/03/30 11:44:57;;;;;;;4.10;2.60;;;;;;;;;;5048684;28;20798;-79
2023/03/30 11:47:32;;;;;;;4.13;2.60;;;;;;;;;;5051327;28;20277;-82
2023/03/30 11:50:01;;;;;;;5.30;2.63;;;;;;;;;;5051821;28;20884;-79
2023/03/30 11:52:41;;;;;;;7.13;2.57;;;;;;;;;;5049628;28;20189;-79
2023/03/30 11:55:16;;;;;;;6.40;2.57;;;;;;;;;;5050107;28;20240;-79
2023/03/30 11:58:00;;;;;;;5.00;2.40;;;;;;;;;;5052095;28;20555;-80
2023/03/30 12:00:34;;;;;;;5.33;2.40;;;;;;;;;;5046270;28;20202;-79
2023/03/30 12:03:07;;;;;;;5.50;2.27;;;;;;;;;;5049476;28;20243;-79
2023/03/30 12:05:45;;;;;;;7.67;2.40;;;;;;;;;;5050804;28;20509;-79
2023/03/30 12:08:31;;;;;;;6.67;2.30;;;;;;;;;;5054030;28;20185;-79
2023/03/30 12:11:21;;;;;;;4.73;2.03;;;;;;;;;;5047887;28;20213;-79
2023/03/30 12:13:48;;;;;;;3.90;2.00;;;;;;;;;;5045416;28;20183;-78
2023/03/30 12:16:19;;;;;;;6.93;1.90;;;;;;;;;;5044972;28;20206;-78
2023/03/30 12:19:04;;;;;;;3.60;1.77;;;;;;;;;;5044870;28;20193;-79
2023/03/30 12:21:40;;;;;;;7.97;1.90;;;;;;;;;;5020813;28;20209;-78
2023/03/30 12:24:16;;;;;;;6.00;1.90;;;;;;;;;;5042249;28;20180;-78
2023/03/30 12:26:42;;;;;;;7.80;2.10;;;;;;;;;;5045749;28;20185;-78
2023/03/30 12:29:11;;;;;;;4.80;2.10;;;;;;;;;;5048075;28;20169;-78
2023/03/30 12:31:54;;;;;;;5.60;2.07;;;;;;;;;;5044052;28;20229;-78
2023/03/30 12:34:21;;;;;;;7.40;2.30;;;;;;;;;;5044390;28;20315;-78
2023/03/30 12:36:48;;;;;;;7.57;2.43;;;;;;;;;;5044845;28;20190;-76
2023/03/30 12:39:24;;;;;;;8.23;2.30;;;;;;;;;;5043475;28;20265;-79
2023/03/30 12:41:56;;;;;;;6.80;2.40;;;;;;;;;;5042847;28;20334;-78
2023/03/30 12:44:38;;;;;;;5.03;2.17;;;;;;;;;;5042876;28;20170;-79
2023/03/30 12:47:04;;;;;;;6.00;2.53;;;;;;;;;;5040668;28;20185;-79
2023/03/30 12:49:42;;;;;;;4.97;2.10;;;;;;;;;;5033142;28;20273;-80
2023/03/30 12:52:13;;;;;;;6.90;2.67;;;;;;;;;;5045713;28;20189;-80
2023/03/30 12:54:39;;;;;;;7.20;2.37;;;;;;;;;;5045550;28;20886;-80
2023/03/30 12:57:21;;;;;;;7.13;2.20;;;;;;;;;;5049419;28;20193;-78
2023/03/30 13:00:06;;;;;;;5.07;1.87;;;;;;;;;;5049997;28;20181;-80
2023/03/30 13:02:38;;;;;;;4.37;2.00;;;;;;;;;;5046121;28;20189;-84
2023/03/30 13:05:16;;;;;;;4.43;2.13;;;;;;;;;;5048731;28;20192;-79
2023/03/30 13:07:42;;;;;;;6.73;2.17;;;;;;;;;;5045080;28;20195;-79
2023/03/30 13:10:27;;;;;;;4.80;1.90;;;;;;;;;;5047791;28;20240;-79
2023/03/30 13:12:55;;;;;;;3.60;1.80;;;;;;;;;;5039955;28;20591;-80
2023/03/30 13:15:33;;;;;;;7.40;1.73;;;;;;;;;;5046286;28;20220;-80
2023/03/30 13:18:01;;;;;;;4.33;1.53;;;;;;;;;;5042757;28;20316;-80
2023/03/30 13:20:29;;;;;;;5.53;1.37;;;;;;;;;;5053762;28;20206;-82
2023/03/30 13:23:23;;;;;;;4.27;1.37;;;;;;;;;;5045865;28;20195;-81
2023/03/30 13:26:04;;;;;;;2.47;1.37;;;;;;;;;;5053443;28;20202;-80
2023/03/30 13:28:33;;;;;;;4.83;1.37;;;;;;;;;;5052391;28;20184;-78
2023/03/30 13:31:23;;;;;;;4.37;1.53;;;;;;;;;;5044814;28;20259;-79
2023/03/30 13:33:57;;;;;;;3.63;1.60;;;;;;;;;;5045254;28;20200;-79
2023/03/30 13:36:27;;;;;;;3.27;1.50;;;;;;;;;;5057593;28;20219;-79
2023/03/30 13:38:59;;;;;;;2.47;1.40;;;;;;;;;;5062538;28;20191;-80
2023/03/30 13:41:50;;;;;;;2.90;1.30;;;;;;;;;;5048250;28;20942;-79
2023/03/30 13:44:16;;;;;;;4.50;1.40;;;;;;;;;;5045638;28;20198;-80
2023/03/30 13:46:53;;;;;;;5.13;1.43;;;;;;;;;;5047130;28;20186;-80
2023/03/30 13:49:30;;;;;;;5.80;1.40;;;;;;;;;;5049925;28;20543;-80
2023/03/30 13:52:02;;;;;;;3.63;1.37;;;;;;;;;;5051268;28;20274;-80
2023/03/30 13:54:30;;;;;;;3.63;1.40;;;;;;;;;;5051154;28;20723;-80
2023/03/30 13:57:01;;;;;;;4.43;1.40;;;;;;;;;;5048062;28;20543;-81
2023/03/30 13:59:29;;;;;;;2.77;1.20;;;;;;;;;;5052107;28;20179;-81
2023/03/30 14:01:56;;;;;;;2.30;1.00;;;;;;;;;;5049926;28;20206;-81
2023/03/30 14:04:22;;;;;;;3.57;1.33;;;;;;;;;;5033119;28;20757;-81
2023/03/30 14:06:51;;;;;;;3.90;1.50;;;;;;;;;;5060214;28;20177;-81
2023/03/30 14:09:24;;;;;;;3.37;1.20;;;;;;;;;;5055870;28;20180;-81
2023/03/30 14:11:52;;;;;;;2.73;1.30;;;;;;;;;;5052969;28;20204;-80
2023/03/30 14:14:19;;;;;;;3.57;1.43;;;;;;;;;;5050171;28;20188;-81
2023/03/30 14:16:46;;;;;;;4.03;1.23;;;;;;;;;;5034531;28;20184;-80
2023/03/30 14:19:19;;;;;;;3.10;1.20;;;;;;;;;;5052247;28;20210;-80
2023/03/30 14:21:46;;;;;;;3.23;1.20;;;;;;;;;;5052071;28;20841;-80
2023/03/30 14:24:15;;;;;;;2.80;1.20;;;;;;;;;;5051642;28;20189;-80
2023/03/30 14:26:42;;;;;;;3.90;1.70;;;;;;;;;;5059110;28;20191;-80
2023/03/30 14:29:14;;;;;;;2.60;1.03;;;;;;;;;;5049871;28;20208;-80
2023/03/30 14:31:41;;;;;;;2.77;1.27;;;;;;;;;;5051555;28;20772;-80
2023/03/30 14:34:25;;;;;;;2.60;1.07;;;;;;;;;;5049222;28;20182;-80
2023/03/30 14:36:52;;;;;;;3.60;1.20;;;;;;;;;;5047237;28;20170;-80
2023/03/30 14:39:21;;;;;;;6.30;1.27;;;;;;;;;;5046415;28;20182;-79
2023/03/30 14:41:47;;;;;;;5.50;1.20;;;;;;;;;;5037358;28;20200;-79
2023/03/30 14:44:14;;;;;;;3.50;1.20;;;;;;;;;;5032475;28;20197;-79
2023/03/30 14:46:42;;;;;;;6.30;1.60;;;;;;;;;;5053847;28;20196;-79
2023/03/30 14:49:13;;;;;;;2.83;1.17;;;;;;;;;;5053079;28;20194;-79
2023/03/30 14:51:43;;;;;;;4.67;1.27;;;;;;;;;;5052047;28;20226;-79
2023/03/30 14:54:14;;;;;;;3.53;1.20;;;;;;;;;;5045229;28;20609;-80
2023/03/30 14:56:42;;;;;;;4.87;1.40;;;;;;;;;;5051291;28;20707;-80
2023/03/30 14:59:10;;;;;;;3.50;1.20;;;;;;;;;;5055911;28;20189;-79
2023/03/30 15:01:36;;;;;;;2.67;1.10;;;;;;;;;;5053960;28;20207;-80
2023/03/30 15:04:06;;;;;;;3.43;1.43;;;;;;;;;;5051339;28;20290;-80
2023/03/30 15:06:33;;;;;;;3.27;1.40;;;;;;;;;;5049351;28;20742;-79
2023/03/30 15:09:06;;;;;;;4.17;1.30;;;;;;;;;;5046883;28;20196;-80
2023/03/30 15:11:34;;;;;;;2.83;1.20;;;;;;;;;;5048722;28;20212;-80
2023/03/30 15:14:02;;;;;;;4.53;1.30;;;;;;;;;;5032353;28;20284;-80